»·PEaware :: N313KP KBMI-KLBF

N313KP :: KBMI-KLBF

FLIGHT INFORMATION

Flight Status: Arrived
Operator: Privately registered:
United States
More flights under this callsign
Pilot: Erik A. (17503)
Aircraft: BEECH AIRCRAFT BONANZA
(BE35)
More flights by this aircraft type
Origin: KBMI Central Ill Regl
United States
Destination: KLBF North Platte Regl-Bird
United States
More flights between these airports :: More routes between these airports
Route: +PIA V48 OTM V52 DSM V6 OVR V172 LBF V148 CINIV
File this flight plan on PilotEdge
Remarks:
Altitude:
(Current/Filed)
6,000ft
Speed:
(Current/Filed)
170kts
Departed: 01-Dec-18 12:29 PM
Arrived: 01-Dec-18 03:56 PM
Distance/Time
Traveled:
536nm/3:26
Distance/Time
To Go:
Arrived

Flight Plot

Page will automatically refresh every two minutes.

Flight plan parsing failed; only flown route is shown


Map Options




Map Legend


Flown Route
Filed Route
Departure Airport
Arrival Airport
Navaid (VOR, NDB)
Fix

Horizontal Profiles

Position Reports

Time Latitude Longitude Heading Altitude Ground
Speed
01-Dec-18 12:22 40.484942 -88.930673 287 874ft 0kts
01-Dec-18 12:23 40.484943 -88.930675 287 874ft 0kts
01-Dec-18 12:24 40.484943 -88.930678 287 874ft 0kts
01-Dec-18 12:25 40.484944 -88.930680 287 874ft 0kts
01-Dec-18 12:26 40.484944 -88.930682 287 874ft 0kts
01-Dec-18 12:27 40.484933 -88.930992 253 874ft 4kts
01-Dec-18 12:28 40.484201 -88.931684 194 874ft 3kts
01-Dec-18 12:29 40.483827 -88.931802 156 874ft 0kts
01-Dec-18 12:30 40.483806 -88.931796 175 874ft 1kts
01-Dec-18 12:31 40.482772 -88.930830 109 874ft 28kts
01-Dec-18 12:32 40.475897 -88.904750 116 1488ft 85kts
01-Dec-18 12:33 40.490022 -88.884717 335 2398ft 129kts
01-Dec-18 12:34 40.512611 -88.920151 290 3343ft 132kts
01-Dec-18 12:35 40.523519 -88.962549 274 4448ft 121kts
01-Dec-18 12:36 40.538602 -89.004782 280 5423ft 134kts
01-Dec-18 12:37 40.556200 -89.051953 281 5989ft 163kts
01-Dec-18 12:38 40.576304 -89.111179 281 5989ft 184kts
01-Dec-18 12:39 40.596813 -89.173444 281 5982ft 187kts
01-Dec-18 12:40 40.617388 -89.236649 279 5988ft 187kts
01-Dec-18 12:41 40.635645 -89.301241 278 5977ft 188kts
01-Dec-18 12:42 40.647928 -89.366428 267 5947ft 182kts
01-Dec-18 12:43 40.657050 -89.432032 267 5935ft 181kts
01-Dec-18 12:44 40.664234 -89.496902 264 5939ft 178kts
01-Dec-18 12:45 40.670894 -89.561784 264 5938ft 178kts
01-Dec-18 12:46 40.677624 -89.626874 264 5923ft 178kts
01-Dec-18 12:47 40.684383 -89.691623 264 5935ft 178kts
01-Dec-18 12:48 40.691147 -89.756405 264 5934ft 178kts
01-Dec-18 12:49 40.694891 -89.820671 258 5930ft 174kts
01-Dec-18 12:50 40.696827 -89.878241 257 6768ft 144kts
01-Dec-18 12:51 40.698293 -89.928961 251 7545ft 132kts
01-Dec-18 12:52 40.697720 -89.975273 251 8490ft 116kts
01-Dec-18 12:53 40.695952 -90.014647 230 9390ft 90kts
01-Dec-18 12:54 40.693912 -90.052784 253 9787ft 132kts
01-Dec-18 12:55 40.695205 -90.108050 259 9703ft 159kts
01-Dec-18 12:56 40.697850 -90.166380 259 9806ft 158kts
01-Dec-18 12:57 40.700529 -90.225395 260 9711ft 167kts
01-Dec-18 12:58 40.703221 -90.286311 260 9683ft 165kts
01-Dec-18 12:59 40.706090 -90.346484 260 9686ft 164kts
01-Dec-18 13:00 40.708941 -90.405554 263 9683ft 162kts
01-Dec-18 13:01 40.715743 -90.462876 273 9706ft 166kts
01-Dec-18 13:02 40.727097 -90.519376 269 9737ft 159kts
01-Dec-18 13:03 40.735045 -90.578361 263 9698ft 163kts
01-Dec-18 13:04 40.740274 -90.637760 256 9716ft 159kts
01-Dec-18 13:05 40.741821 -90.695863 254 9765ft 153kts
01-Dec-18 13:06 40.740556 -90.752028 257 9790ft 148kts
01-Dec-18 13:07 40.740289 -90.808238 253 9693ft 155kts
01-Dec-18 13:08 40.736341 -90.866287 251 9678ft 160kts
01-Dec-18 13:09 40.732166 -90.924987 264 9670ft 169kts
01-Dec-18 13:10 40.748752 -90.986153 277 9671ft 178kts
01-Dec-18 13:11 40.765312 -91.047568 273 9675ft 175kts
01-Dec-18 13:12 40.770970 -91.108700 260 9681ft 167kts
01-Dec-18 13:13 40.785289 -91.170422 278 9677ft 178kts
01-Dec-18 13:14 40.800771 -91.232318 276 9664ft 178kts
01-Dec-18 13:15 40.816501 -91.294363 276 9665ft 178kts
01-Dec-18 13:16 40.832328 -91.356559 276 9653ft 178kts
01-Dec-18 13:17 40.847896 -91.418418 276 9649ft 178kts
01-Dec-18 13:18 40.863563 -91.480520 276 9643ft 178kts
01-Dec-18 13:19 40.879285 -91.542697 276 9649ft 178kts
01-Dec-18 13:20 40.894963 -91.604808 276 9651ft 178kts
01-Dec-18 13:21 40.910595 -91.667062 276 9640ft 179kts
01-Dec-18 13:22 40.926222 -91.729616 276 9636ft 179kts
01-Dec-18 13:23 40.941930 -91.792034 276 9635ft 178kts
01-Dec-18 13:24 40.942427 -91.853686 256 9642ft 166kts
01-Dec-18 13:25 40.941524 -91.914914 256 9646ft 166kts
01-Dec-18 13:26 40.940636 -91.976327 256 9642ft 166kts
01-Dec-18 13:27 40.939989 -92.037698 269 9637ft 174kts
01-Dec-18 13:28 40.969510 -92.093373 282 9643ft 181kts
01-Dec-18 13:29 40.985882 -92.156024 277 9644ft 180kts
01-Dec-18 13:30 41.001817 -92.218832 277 9647ft 180kts
01-Dec-18 13:31 41.017964 -92.281941 279 9637ft 181kts
01-Dec-18 13:32 41.033837 -92.344907 278 9640ft 180kts
01-Dec-18 13:33 41.058148 -92.403155 286 9649ft 184kts
01-Dec-18 13:34 41.076525 -92.465334 282 9647ft 183kts
01-Dec-18 13:35 41.097640 -92.527230 284 9646ft 185kts
01-Dec-18 13:36 41.118734 -92.589215 284 9650ft 184kts
01-Dec-18 13:37 41.139836 -92.651428 284 9651ft 184kts
01-Dec-18 13:38 41.160915 -92.713641 285 9657ft 185kts
01-Dec-18 13:39 41.182071 -92.776013 285 9657ft 185kts
01-Dec-18 13:40 41.203266 -92.838517 285 9658ft 185kts
01-Dec-18 13:41 41.224561 -92.900687 285 9661ft 185kts
01-Dec-18 13:42 41.242102 -92.964010 272 9652ft 179kts
01-Dec-18 13:43 41.250925 -93.028902 268 9650ft 177kts
01-Dec-18 13:44 41.256637 -93.093679 265 9641ft 176kts
01-Dec-18 13:45 41.260245 -93.158320 263 9638ft 175kts
01-Dec-18 13:46 41.262266 -93.222838 261 9639ft 174kts
01-Dec-18 13:47 41.262865 -93.287308 260 9638ft 173kts
01-Dec-18 13:48 41.262504 -93.351434 259 9636ft 173kts
01-Dec-18 13:49 41.261510 -93.415539 258 9634ft 173kts
01-Dec-18 13:50 41.260097 -93.479775 258 9630ft 173kts
01-Dec-18 13:51 41.257908 -93.543560 257 9619ft 173kts
01-Dec-18 13:52 41.255638 -93.607738 258 9619ft 173kts
01-Dec-18 13:53 41.253351 -93.671615 257 9625ft 173kts
01-Dec-18 13:54 41.250869 -93.735808 258 9616ft 174kts
01-Dec-18 13:55 41.248275 -93.799705 257 9623ft 173kts
01-Dec-18 13:56 41.245615 -93.863893 257 9626ft 174kts
01-Dec-18 13:57 41.242950 -93.928367 258 9612ft 174kts
01-Dec-18 13:58 41.240497 -93.991362 257 9787ft 167kts
01-Dec-18 13:59 41.237421 -94.054506 258 9803ft 173kts
01-Dec-18 14:00 41.234209 -94.118959 258 9808ft 175kts
01-Dec-18 14:01 41.231198 -94.183881 258 9796ft 176kts
01-Dec-18 14:02 41.228343 -94.248867 259 9790ft 176kts
01-Dec-18 14:03 41.225576 -94.314271 259 9783ft 177kts
01-Dec-18 14:04 41.222693 -94.379451 259 9787ft 176kts
01-Dec-18 14:05 41.219917 -94.444622 259 9789ft 177kts
01-Dec-18 14:06 41.217211 -94.509859 259 9791ft 177kts
01-Dec-18 14:07 41.214488 -94.575263 259 9799ft 177kts
01-Dec-18 14:08 41.211628 -94.640899 259 9793ft 177kts
01-Dec-18 14:09 41.208892 -94.706581 260 9796ft 178kts
01-Dec-18 14:10 41.206189 -94.772484 260 9789ft 179kts
01-Dec-18 14:11 41.203472 -94.838708 260 9783ft 180kts
01-Dec-18 14:12 41.200784 -94.905090 260 9782ft 180kts
01-Dec-18 14:13 41.197993 -94.971558 260 9792ft 180kts
01-Dec-18 14:14 41.195295 -95.038272 260 9788ft 181kts
01-Dec-18 14:15 41.192462 -95.105388 260 9786ft 181kts
01-Dec-18 14:16 41.189680 -95.172522 261 9769ft 183kts
01-Dec-18 14:17 41.186937 -95.239938 261 9772ft 183kts
01-Dec-18 14:18 41.184241 -95.307275 261 9769ft 183kts
01-Dec-18 14:19 41.181529 -95.375064 261 9767ft 184kts
01-Dec-18 14:20 41.178794 -95.443251 261 9779ft 184kts
01-Dec-18 14:21 41.176115 -95.511308 261 9779ft 185kts
01-Dec-18 14:22 41.173411 -95.579772 261 9775ft 186kts
01-Dec-18 14:23 41.170720 -95.648314 262 9785ft 185kts
01-Dec-18 14:24 41.168193 -95.717220 267 9780ft 188kts
01-Dec-18 14:25 41.177279 -95.786190 276 9792ft 190kts
01-Dec-18 14:26 41.186694 -95.855614 276 9790ft 191kts
01-Dec-18 14:27 41.201881 -95.923551 279 9797ft 191kts
01-Dec-18 14:28 41.214713 -95.992388 281 9797ft 192kts
01-Dec-18 14:29 41.226992 -96.061752 282 9802ft 194kts
01-Dec-18 14:30 41.239835 -96.131821 283 9799ft 195kts
01-Dec-18 14:31 41.252698 -96.202165 283 9813ft 195kts
01-Dec-18 14:32 41.265559 -96.272311 283 9813ft 196kts
01-Dec-18 14:33 41.278371 -96.342757 283 9822ft 195kts
01-Dec-18 14:34 41.291089 -96.413082 283 9827ft 196kts
01-Dec-18 14:35 41.303977 -96.483591 283 9826ft 196kts
01-Dec-18 14:36 41.316864 -96.554214 283 9830ft 196kts
01-Dec-18 14:37 41.329668 -96.624669 283 9835ft 196kts
01-Dec-18 14:38 41.342400 -96.695375 283 9829ft 197kts
01-Dec-18 14:39 41.355185 -96.766369 284 9831ft 197kts
01-Dec-18 14:40 41.367848 -96.837137 284 9834ft 197kts
01-Dec-18 14:41 41.378400 -96.896352 284 9848ft 197kts
01-Dec-18 14:42 41.393305 -96.979371 284 9859ft 197kts
01-Dec-18 14:43 41.403871 -97.038855 285 9864ft 198kts
01-Dec-18 14:44 41.418543 -97.122308 285 9876ft 198kts
01-Dec-18 14:45 41.428741 -97.182108 276 9879ft 199kts
01-Dec-18 14:46 41.431261 -97.268751 273 9887ft 200kts
01-Dec-18 14:47 41.432813 -97.330722 273 9878ft 202kts
01-Dec-18 14:48 41.434860 -97.418164 273 9882ft 202kts
01-Dec-18 14:49 41.435962 -97.480889 273 9881ft 203kts
01-Dec-18 14:50 41.437132 -97.568222 266 9882ft 204kts
01-Dec-18 14:51 41.433517 -97.631183 266 9890ft 205kts
01-Dec-18 14:52 41.429187 -97.707266 266 9898ft 205kts
01-Dec-18 14:53 41.424818 -97.783139 266 9910ft 206kts
01-Dec-18 14:54 41.420457 -97.859511 266 9910ft 207kts
01-Dec-18 14:55 41.416129 -97.935928 266 9908ft 207kts
01-Dec-18 14:56 41.402120 -98.008664 248 9912ft 206kts
01-Dec-18 14:57 41.392079 -98.083858 268 9943ft 206kts
01-Dec-18 14:58 41.387315 -98.160282 268 9942ft 207kts
01-Dec-18 14:59 41.382752 -98.236810 268 9944ft 207kts
01-Dec-18 15:00 41.378149 -98.313278 268 9950ft 207kts
01-Dec-18 15:01 41.373967 -98.389644 269 9957ft 206kts
01-Dec-18 15:02 41.370410 -98.465864 269 9960ft 206kts
01-Dec-18 15:03 41.366996 -98.542074 270 9961ft 205kts
01-Dec-18 15:04 41.357065 -98.616997 269 9965ft 205kts
01-Dec-18 15:05 41.351600 -98.692340 268 9974ft 204kts
01-Dec-18 15:06 41.346226 -98.767664 268 9975ft 204kts
01-Dec-18 15:07 41.340876 -98.842900 268 9983ft 204kts
01-Dec-18 15:08 41.335348 -98.918292 268 9983ft 205kts
01-Dec-18 15:09 41.329773 -98.993693 268 9990ft 204kts
01-Dec-18 15:10 41.324276 -99.068648 269 10019ft 203kts
01-Dec-18 15:11 41.318832 -99.143792 269 10024ft 203kts
01-Dec-18 15:12 41.313342 -99.219039 269 10013ft 204kts
01-Dec-18 15:13 41.307843 -99.293923 269 10017ft 203kts
01-Dec-18 15:14 41.302341 -99.368793 269 10020ft 203kts
01-Dec-18 15:15 41.296684 -99.444625 269 9964ft 204kts
01-Dec-18 15:16 41.291137 -99.519603 270 9972ft 203kts
01-Dec-18 15:17 41.285252 -99.594545 269 9967ft 204kts
01-Dec-18 15:18 41.279199 -99.669967 269 9963ft 205kts
01-Dec-18 15:19 41.273208 -99.745319 269 9963ft 205kts
01-Dec-18 15:20 41.267139 -99.820574 269 9964ft 204kts
01-Dec-18 15:21 41.243916 -99.889143 244 10153ft 204kts
01-Dec-18 15:22 41.220383 -99.954335 247 9964ft 213kts
01-Dec-18 15:23 41.195086 -100.024825 246 9962ft 209kts
01-Dec-18 15:24 41.169275 -100.093477 250 9964ft 206kts
01-Dec-18 15:25 41.149642 -100.164089 256 9965ft 203kts
01-Dec-18 15:26 41.131544 -100.234757 257 9983ft 202kts
01-Dec-18 15:27 41.113856 -100.306087 258 9922ft 202kts
01-Dec-18 15:28 41.101624 -100.377749 265 9930ft 198kts
01-Dec-18 15:29 41.089706 -100.452225 265 9298ft 214kts
01-Dec-18 15:30 41.077138 -100.529525 265 8572ft 213kts
01-Dec-18 15:31 41.063983 -100.605386 265 7844ft 209kts
01-Dec-18 15:32 41.051137 -100.679243 265 7130ft 203kts
01-Dec-18 15:33 41.038257 -100.750898 265 6398ft 196kts
01-Dec-18 15:34 40.992048 -100.781943 179 5816ft 209kts
01-Dec-18 15:35 40.936680 -100.786749 188 5914ft 196kts
01-Dec-18 15:36 40.882386 -100.796870 189 5977ft 196kts
01-Dec-18 15:37 40.828617 -100.807925 191 6026ft 195kts
01-Dec-18 15:38 40.774929 -100.820383 187 5998ft 196kts
01-Dec-18 15:39 40.749109 -100.776733 93 6190ft 157kts
01-Dec-18 15:40 40.748890 -100.723061 72 6322ft 136kts
01-Dec-18 15:41 40.759574 -100.674542 55 5792ft 129kts
01-Dec-18 15:42 40.776496 -100.635088 46 5314ft 122kts
01-Dec-18 15:43 40.794994 -100.595815 51 4826ft 124kts
01-Dec-18 15:44 40.810524 -100.554326 56 4745ft 123kts
01-Dec-18 15:45 40.830024 -100.518865 43 4741ft 118kts
01-Dec-18 15:46 40.854093 -100.488069 38 4649ft 122kts
01-Dec-18 15:47 40.876814 -100.457590 32 4710ft 121kts
01-Dec-18 15:48 40.904219 -100.433452 29 4712ft 118kts
01-Dec-18 15:49 40.933452 -100.416391 13 4734ft 116kts
01-Dec-18 15:50 40.965331 -100.413419 352 4721ft 117kts
01-Dec-18 15:51 40.992291 -100.439441 318 4725ft 125kts
01-Dec-18 15:52 41.013228 -100.476636 313 4731ft 127kts
01-Dec-18 15:53 41.034959 -100.512482 322 4354ft 122kts
01-Dec-18 15:54 41.052182 -100.549441 306 4527ft 125kts
01-Dec-18 15:55 41.072125 -100.588975 322 4486ft 135kts
01-Dec-18 15:56 41.095392 -100.625622 311 3882ft 118kts
01-Dec-18 15:57 41.112750 -100.655719 320 3054ft 89kts
01-Dec-18 15:58 41.126555 -100.680009 319 2780ft 66kts
01-Dec-18 15:59 41.131557 -100.689177 306 2779ft 20kts
01-Dec-18 16:00 41.131314 -100.690923 219 2779ft 0kts
01-Dec-18 16:01 41.131086 -100.691758 274 2779ft 9kts
01-Dec-18 16:02 41.131153 -100.695835 268 2779ft 13kts
01-Dec-18 16:03 41.132289 -100.697330 11 2779ft 4kts
01-Dec-18 16:04 41.132379 -100.696919 265 2779ft 0kts
01-Dec-18 16:05 41.132379 -100.696920 265 2779ft 0kts

Navigation Log

Ident Type
Flight plan parsing failed, navigation log unavailable